sensor_id;sensor_type;location;lat;lon;timestamp;pressure;altitude;pressure_sealevel;temperature;humidity
41945;BME280;63122;52.424;13.458;2022-10-16T00:00:30;100438.78;;;16.02;76.36
41945;BME280;63122;52.424;13.458;2022-10-16T00:03:20;100446.63;;;16.10;76.26
41945;BME280;63122;52.424;13.458;2022-10-16T00:05:58;100447.47;;;15.89;77.58
41945;BME280;63122;52.424;13.458;2022-10-16T00:08:30;100455.25;;;16.12;76.54
41945;BME280;63122;52.424;13.458;2022-10-16T00:11:01;100462.63;;;16.17;76.21
41945;BME280;63122;52.424;13.458;2022-10-16T00:13:33;100468.44;;;16.27;75.99
41945;BME280;63122;52.424;13.458;2022-10-16T00:16:04;100466.56;;;16.21;76.41
41945;BME280;63122;52.424;13.458;2022-10-16T00:18:35;100468.72;;;16.11;77.25
41945;BME280;63122;52.424;13.458;2022-10-16T00:21:10;100457.66;;;16.07;77.30
41945;BME280;63122;52.424;13.458;2022-10-16T00:23:41;100458.47;;;16.08;77.69
41945;BME280;63122;52.424;13.458;2022-10-16T00:26:13;100456.94;;;16.20;77.51
41945;BME280;63122;52.424;13.458;2022-10-16T00:28:45;100466.84;;;16.33;76.61
41945;BME280;63122;52.424;13.458;2022-10-16T00:31:17;100478.63;;;16.24;77.26
41945;BME280;63122;52.424;13.458;2022-10-16T00:33:48;100482.94;;;16.25;77.34
41945;BME280;63122;52.424;13.458;2022-10-16T00:36:23;100477.69;;;16.32;76.86
41945;BME280;63122;52.424;13.458;2022-10-16T00:38:55;100487.38;;;16.46;76.09
41945;BME280;63122;52.424;13.458;2022-10-16T00:41:47;100490.25;;;16.45;76.33
41945;BME280;63122;52.424;13.458;2022-10-16T00:44:43;100486.00;;;16.50;75.93
41945;BME280;63122;52.424;13.458;2022-10-16T00:47:18;100475.19;;;16.30;76.81
41945;BME280;63122;52.424;13.458;2022-10-16T00:49:50;100479.31;;;16.33;76.88
41945;BME280;63122;52.424;13.458;2022-10-16T00:52:25;100475.81;;;16.32;77.12
41945;BME280;63122;52.424;13.458;2022-10-16T00:54:56;100485.66;;;16.32;76.98
41945;BME280;63122;52.424;13.458;2022-10-16T00:57:26;100486.00;;;16.22;77.39
41945;BME280;63122;52.424;13.458;2022-10-16T00:59:56;100490.78;;;16.05;78.81
41945;BME280;63122;52.424;13.458;2022-10-16T01:02:27;100491.53;;;16.20;77.87
41945;BME280;63122;52.424;13.458;2022-10-16T01:04:57;100482.66;;;16.13;77.87
41945;BME280;63122;52.424;13.458;2022-10-16T01:07:39;100491.97;;;16.02;78.89
41945;BME280;63122;52.424;13.458;2022-10-16T01:10:17;100492.34;;;16.21;78.03
41945;BME280;63122;52.424;13.458;2022-10-16T01:12:54;100491.25;;;16.15;78.00
41945;BME280;63122;52.424;13.458;2022-10-16T01:15:31;100487.16;;;16.12;78.68
41945;BME280;63122;52.424;13.458;2022-10-16T01:18:07;100476.66;;;16.33;77.49
41945;BME280;63122;52.424;13.458;2022-10-16T01:20:42;100492.91;;;16.45;76.73
41945;BME280;63122;52.424;13.458;2022-10-16T01:23:28;100496.88;;;16.55;75.97
41945;BME280;63122;52.424;13.458;2022-10-16T01:26:30;100498.25;;;16.45;76.64
41945;BME280;63122;52.424;13.458;2022-10-16T01:29:09;100498.63;;;16.41;76.78
41945;BME280;63122;52.424;13.458;2022-10-16T01:31:47;100508.59;;;16.33;77.36
41945;BME280;63122;52.424;13.458;2022-10-16T01:34:23;100508.16;;;16.29;77.20
41945;BME280;63122;52.424;13.458;2022-10-16T01:36:59;100511.41;;;16.24;77.37
41945;BME280;63122;52.424;13.458;2022-10-16T01:39:35;100511.88;;;16.06;78.39
41945;BME280;63122;52.424;13.458;2022-10-16T01:42:14;100512.75;;;16.14;78.24
41945;BME280;63122;52.424;13.458;2022-10-16T01:44:50;100521.22;;;16.24;77.72
41945;BME280;63122;52.424;13.458;2022-10-16T01:47:23;100520.38;;;15.95;79.24
41945;BME280;63122;52.424;13.458;2022-10-16T01:49:56;100520.22;;;16.03;79.04
41945;BME280;63122;52.424;13.458;2022-10-16T01:52:29;100520.44;;;16.02;78.89
41945;BME280;63122;52.424;13.458;2022-10-16T01:55:00;100515.97;;;15.87;79.41
41945;BME280;63122;52.424;13.458;2022-10-16T01:57:34;100525.00;;;15.71;80.41
41945;BME280;63122;52.424;13.458;2022-10-16T02:00:12;100522.88;;;15.81;80.09
41945;BME280;63122;52.424;13.458;2022-10-16T02:02:45;100525.16;;;15.84;80.08
41945;BME280;63122;52.424;13.458;2022-10-16T02:05:22;100527.56;;;16.01;79.32
41945;BME280;63122;52.424;13.458;2022-10-16T02:07:54;100527.19;;;15.82;79.93
41945;BME280;63122;52.424;13.458;2022-10-16T02:10:29;100532.31;;;15.84;79.72
41945;BME280;63122;52.424;13.458;2022-10-16T02:13:03;100530.59;;;15.76;80.49
41945;BME280;63122;52.424;13.458;2022-10-16T02:15:38;100548.31;;;15.69;81.03
41945;BME280;63122;52.424;13.458;2022-10-16T02:18:09;100553.00;;;15.67;81.00
41945;BME280;63122;52.424;13.458;2022-10-16T02:20:45;100547.56;;;15.75;80.75
41945;BME280;63122;52.424;13.458;2022-10-16T02:23:24;100546.66;;;15.68;81.55
41945;BME280;63122;52.424;13.458;2022-10-16T02:25:58;100553.88;;;15.52;82.51
41945;BME280;63122;52.424;13.458;2022-10-16T02:28:34;100547.00;;;15.43;83.07
41945;BME280;63122;52.424;13.458;2022-10-16T02:31:12;100539.81;;;15.59;82.06
41945;BME280;63122;52.424;13.458;2022-10-16T02:33:45;100534.31;;;15.60;81.89
41945;BME280;63122;52.424;13.458;2022-10-16T02:36:16;100544.56;;;15.63;82.16
41945;BME280;63122;52.424;13.458;2022-10-16T02:38:46;100535.72;;;15.78;81.30
41945;BME280;63122;52.424;13.458;2022-10-16T02:41:16;100546.28;;;15.71;81.48
41945;BME280;63122;52.424;13.458;2022-10-16T02:43:46;100554.13;;;15.58;82.08
41945;BME280;63122;52.424;13.458;2022-10-16T02:46:19;100555.53;;;15.53;82.15
41945;BME280;63122;52.424;13.458;2022-10-16T02:48:49;100546.25;;;15.64;82.28
41945;BME280;63122;52.424;13.458;2022-10-16T02:51:19;100546.03;;;15.66;82.10
41945;BME280;63122;52.424;13.458;2022-10-16T02:53:49;100535.91;;;15.76;81.07
41945;BME280;63122;52.424;13.458;2022-10-16T02:56:19;100550.63;;;15.94;80.01
41945;BME280;63122;52.424;13.458;2022-10-16T02:58:49;100555.81;;;16.02;80.00
41945;BME280;63122;52.424;13.458;2022-10-16T03:01:22;100550.00;;;15.92;80.27
41945;BME280;63122;52.424;13.458;2022-10-16T03:03:52;100548.88;;;15.86;80.64
41945;BME280;63122;52.424;13.458;2022-10-16T03:06:22;100547.53;;;15.90;80.26
41945;BME280;63122;52.424;13.458;2022-10-16T03:08:53;100557.53;;;16.10;79.52
41945;BME280;63122;52.424;13.458;2022-10-16T03:11:23;100566.28;;;16.04;79.73
41945;BME280;63122;52.424;13.458;2022-10-16T03:13:53;100570.16;;;15.86;80.38
41945;BME280;63122;52.424;13.458;2022-10-16T03:16:26;100578.34;;;16.00;79.70
41945;BME280;63122;52.424;13.458;2022-10-16T03:18:56;100586.69;;;15.96;79.38
41945;BME280;63122;52.424;13.458;2022-10-16T03:21:26;100584.06;;;16.03;79.40
41945;BME280;63122;52.424;13.458;2022-10-16T03:23:56;100576.56;;;16.07;78.99
41945;BME280;63122;52.424;13.458;2022-10-16T03:26:26;100566.22;;;16.19;78.46
41945;BME280;63122;52.424;13.458;2022-10-16T03:28:56;100573.56;;;16.38;77.24
41945;BME280;63122;52.424;13.458;2022-10-16T03:31:29;100579.44;;;16.34;77.61
41945;BME280;63122;52.424;13.458;2022-10-16T03:34:00;100585.47;;;16.43;76.69
41945;BME280;63122;52.424;13.458;2022-10-16T03:36:29;100587.69;;;16.39;76.82
41945;BME280;63122;52.424;13.458;2022-10-16T03:39:00;100603.91;;;16.44;76.36
41945;BME280;63122;52.424;13.458;2022-10-16T03:41:30;100593.00;;;16.17;77.58
41945;BME280;63122;52.424;13.458;2022-10-16T03:44:00;100612.03;;;16.14;78.15
41945;BME280;63122;52.424;13.458;2022-10-16T03:46:32;100605.06;;;16.13;77.99
41945;BME280;63122;52.424;13.458;2022-10-16T03:49:03;100613.03;;;16.13;78.16
41945;BME280;63122;52.424;13.458;2022-10-16T03:51:36;100609.00;;;15.95;78.73
41945;BME280;63122;52.424;13.458;2022-10-16T03:54:06;100613.94;;;15.98;78.71
41945;BME280;63122;52.424;13.458;2022-10-16T03:56:35;100608.47;;;16.07;78.37
41945;BME280;63122;52.424;13.458;2022-10-16T03:59:06;100612.78;;;16.08;77.99
41945;BME280;63122;52.424;13.458;2022-10-16T04:01:38;100623.56;;;16.21;77.66
41945;BME280;63122;52.424;13.458;2022-10-16T04:04:08;100631.03;;;16.33;76.96
41945;BME280;63122;52.424;13.458;2022-10-16T04:06:38;100636.88;;;16.21;77.25
41945;BME280;63122;52.424;13.458;2022-10-16T04:09:08;100643.09;;;15.92;78.83
41945;BME280;63122;52.424;13.458;2022-10-16T04:11:38;100648.81;;;15.74;79.59
41945;BME280;63122;52.424;13.458;2022-10-16T04:14:08;100645.13;;;15.75;79.48
41945;BME280;63122;52.424;13.458;2022-10-16T04:16:41;100637.28;;;15.66;79.91
41945;BME280;63122;52.424;13.458;2022-10-16T04:19:11;100646.97;;;15.74;79.33
41945;BME280;63122;52.424;13.458;2022-10-16T04:21:41;100639.63;;;15.76;79.59
41945;BME280;63122;52.424;13.458;2022-10-16T04:24:11;100636.91;;;15.69;79.34
41945;BME280;63122;52.424;13.458;2022-10-16T04:26:41;100636.97;;;15.91;78.63
41945;BME280;63122;52.424;13.458;2022-10-16T04:29:11;100638.16;;;15.89;78.77
41945;BME280;63122;52.424;13.458;2022-10-16T04:31:44;100636.78;;;15.93;78.52
41945;BME280;63122;52.424;13.458;2022-10-16T04:34:14;100626.34;;;16.13;77.56
41945;BME280;63122;52.424;13.458;2022-10-16T04:36:46;100627.81;;;16.16;77.12
41945;BME280;63122;52.424;13.458;2022-10-16T04:39:17;100614.06;;;16.34;76.61
41945;BME280;63122;52.424;13.458;2022-10-16T04:41:47;100611.94;;;16.51;75.42
41945;BME280;63122;52.424;13.458;2022-10-16T04:44:18;100604.72;;;16.66;74.56
41945;BME280;63122;52.424;13.458;2022-10-16T04:46:52;100612.53;;;16.75;73.94
41945;BME280;63122;52.424;13.458;2022-10-16T04:49:33;100617.41;;;16.43;74.83
41945;BME280;63122;52.424;13.458;2022-10-16T04:52:04;100622.19;;;16.47;75.11
41945;BME280;63122;52.424;13.458;2022-10-16T04:54:36;100627.97;;;16.58;74.40
41945;BME280;63122;52.424;13.458;2022-10-16T04:57:06;100620.78;;;16.51;74.75
41945;BME280;63122;52.424;13.458;2022-10-16T04:59:36;100620.19;;;16.56;74.62
41945;BME280;63122;52.424;13.458;2022-10-16T05:02:11;100613.66;;;16.59;73.80
41945;BME280;63122;52.424;13.458;2022-10-16T05:04:41;100619.91;;;16.73;73.65
41945;BME280;63122;52.424;13.458;2022-10-16T05:07:11;100635.19;;;16.64;73.74
41945;BME280;63122;52.424;13.458;2022-10-16T05:09:41;100652.56;;;16.60;73.28
41945;BME280;63122;52.424;13.458;2022-10-16T05:12:11;100656.88;;;16.39;74.53
41945;BME280;63122;52.424;13.458;2022-10-16T05:14:41;100666.28;;;16.35;74.88
41945;BME280;63122;52.424;13.458;2022-10-16T05:17:14;100671.59;;;16.35;74.89
41945;BME280;63122;52.424;13.458;2022-10-16T05:19:44;100662.66;;;16.21;75.31
41945;BME280;63122;52.424;13.458;2022-10-16T05:22:14;100662.16;;;16.32;75.41
41945;BME280;63122;52.424;13.458;2022-10-16T05:24:44;100665.25;;;16.58;73.79
41945;BME280;63122;52.424;13.458;2022-10-16T05:27:14;100676.16;;;16.41;74.31
41945;BME280;63122;52.424;13.458;2022-10-16T05:29:48;100662.78;;;16.56;73.91
41945;BME280;63122;52.424;13.458;2022-10-16T05:32:21;100658.84;;;16.30;74.68
41945;BME280;63122;52.424;13.458;2022-10-16T05:34:51;100658.13;;;16.36;74.65
41945;BME280;63122;52.424;13.458;2022-10-16T05:37:21;100656.88;;;16.39;74.01
41945;BME280;63122;52.424;13.458;2022-10-16T05:39:52;100655.38;;;16.51;73.80
41945;BME280;63122;52.424;13.458;2022-10-16T05:42:21;100656.88;;;16.61;73.71
41945;BME280;63122;52.424;13.458;2022-10-16T05:44:52;100650.44;;;16.48;74.00
41945;BME280;63122;52.424;13.458;2022-10-16T05:47:25;100654.69;;;16.64;73.13
41945;BME280;63122;52.424;13.458;2022-10-16T05:49:55;100669.44;;;16.45;73.58
41945;BME280;63122;52.424;13.458;2022-10-16T05:52:26;100677.72;;;16.79;72.46
41945;BME280;63122;52.424;13.458;2022-10-16T05:54:56;100678.00;;;16.62;73.18
41945;BME280;63122;52.424;13.458;2022-10-16T05:57:26;100678.34;;;16.52;73.73
41945;BME280;63122;52.424;13.458;2022-10-16T05:59:57;100678.72;;;16.49;74.01
41945;BME280;63122;52.424;13.458;2022-10-16T06:02:30;100678.25;;;16.46;73.99
41945;BME280;63122;52.424;13.458;2022-10-16T06:05:00;100675.97;;;16.43;73.77
41945;BME280;63122;52.424;13.458;2022-10-16T06:07:34;100674.41;;;16.48;73.89
41945;BME280;63122;52.424;13.458;2022-10-16T06:10:07;100681.31;;;16.43;73.99
41945;BME280;63122;52.424;13.458;2022-10-16T06:12:47;100674.41;;;16.48;73.92
41945;BME280;63122;52.424;13.458;2022-10-16T06:15:21;100688.84;;;16.61;73.21
41945;BME280;63122;52.424;13.458;2022-10-16T06:18:03;100692.59;;;16.45;74.07
41945;BME280;63122;52.424;13.458;2022-10-16T06:20:42;100686.56;;;16.58;73.26
41945;BME280;63122;52.424;13.458;2022-10-16T06:23:18;100682.81;;;16.74;72.68
41945;BME280;63122;52.424;13.458;2022-10-16T06:26:18;100693.72;;;16.79;73.01
41945;BME280;63122;52.424;13.458;2022-10-16T06:29:06;100689.41;;;16.78;72.41
41945;BME280;63122;52.424;13.458;2022-10-16T06:31:41;100688.69;;;16.69;72.89
41945;BME280;63122;52.424;13.458;2022-10-16T06:34:26;100684.63;;;16.73;73.19
41945;BME280;63122;52.424;13.458;2022-10-16T06:37:09;100698.88;;;16.59;74.00
41945;BME280;63122;52.424;13.458;2022-10-16T06:39:52;100704.03;;;16.89;72.75
41945;BME280;63122;52.424;13.458;2022-10-16T06:42:25;100715.53;;;16.89;72.52
41945;BME280;63122;52.424;13.458;2022-10-16T06:44:59;100722.31;;;16.70;73.26
41945;BME280;63122;52.424;13.458;2022-10-16T06:47:30;100725.72;;;16.42;74.99
41945;BME280;63122;52.424;13.458;2022-10-16T06:50:21;100739.00;;;16.35;75.33
41945;BME280;63122;52.424;13.458;2022-10-16T06:52:52;100735.31;;;16.36;75.63
41945;BME280;63122;52.424;13.458;2022-10-16T06:55:29;100738.66;;;16.23;77.03
41945;BME280;63122;52.424;13.458;2022-10-16T06:58:16;100741.66;;;16.35;75.97
41945;BME280;63122;52.424;13.458;2022-10-16T07:00:46;100749.31;;;16.45;75.96
41945;BME280;63122;52.424;13.458;2022-10-16T07:03:23;100739.13;;;16.49;75.73
41945;BME280;63122;52.424;13.458;2022-10-16T07:05:56;100738.81;;;16.59;75.41
41945;BME280;63122;52.424;13.458;2022-10-16T07:08:34;100740.22;;;16.76;74.40
41945;BME280;63122;52.424;13.458;2022-10-16T07:11:12;100740.13;;;16.91;74.44
41945;BME280;63122;52.424;13.458;2022-10-16T07:13:51;100750.81;;;16.91;74.35
41945;BME280;63122;52.424;13.458;2022-10-16T07:16:24;100763.22;;;17.06;74.22
41945;BME280;63122;52.424;13.458;2022-10-16T07:22:28;100765.19;;;17.19;73.79
41945;BME280;63122;52.424;13.458;2022-10-16T07:25:03;100753.44;;;17.13;74.22
41945;BME280;63122;52.424;13.458;2022-10-16T07:27:33;100763.59;;;17.24;74.45
41945;BME280;63122;52.424;13.458;2022-10-16T07:30:04;100768.25;;;17.16;75.43
41945;BME280;63122;52.424;13.458;2022-10-16T07:32:36;100774.25;;;17.24;74.83
41945;BME280;63122;52.424;13.458;2022-10-16T07:35:07;100775.22;;;17.17;74.94
41945;BME280;63122;52.424;13.458;2022-10-16T07:37:44;100765.00;;;17.20;74.77
41945;BME280;63122;52.424;13.458;2022-10-16T07:40:14;100766.75;;;17.06;75.71
41945;BME280;63122;52.424;13.458;2022-10-16T07:42:44;100765.09;;;17.05;75.46
41945;BME280;63122;52.424;13.458;2022-10-16T07:45:14;100776.41;;;17.14;75.38
41945;BME280;63122;52.424;13.458;2022-10-16T07:47:44;100766.03;;;17.19;75.59
41945;BME280;63122;52.424;13.458;2022-10-16T07:50:15;100772.09;;;17.13;75.82
41945;BME280;63122;52.424;13.458;2022-10-16T07:52:47;100773.94;;;17.34;75.14
41945;BME280;63122;52.424;13.458;2022-10-16T07:55:17;100772.31;;;17.40;75.29
41945;BME280;63122;52.424;13.458;2022-10-16T07:58:00;100777.34;;;17.28;75.29
41945;BME280;63122;52.424;13.458;2022-10-16T08:00:33;100770.06;;;17.15;76.22
41945;BME280;63122;52.424;13.458;2022-10-16T08:03:03;100771.53;;;17.18;76.12
41945;BME280;63122;52.424;13.458;2022-10-16T08:05:43;100770.34;;;17.20;76.52
41945;BME280;63122;52.424;13.458;2022-10-16T08:08:24;100783.38;;;17.37;75.76
41945;BME280;63122;52.424;13.458;2022-10-16T08:10:56;100788.47;;;17.32;75.74
41945;BME280;63122;52.424;13.458;2022-10-16T08:13:26;100788.50;;;17.38;75.50
41945;BME280;63122;52.424;13.458;2022-10-16T08:15:56;100800.41;;;17.14;76.04
41945;BME280;63122;52.424;13.458;2022-10-16T08:18:28;100812.09;;;17.13;76.50
41945;BME280;63122;52.424;13.458;2022-10-16T08:20:59;100811.44;;;17.33;76.07
41945;BME280;63122;52.424;13.458;2022-10-16T08:23:32;100813.47;;;17.31;75.81
41945;BME280;63122;52.424;13.458;2022-10-16T08:26:04;100809.41;;;17.35;75.66
41945;BME280;63122;52.424;13.458;2022-10-16T08:28:51;100805.84;;;17.27;75.51
41945;BME280;63122;52.424;13.458;2022-10-16T08:31:31;100820.66;;;17.08;76.34
41945;BME280;63122;52.424;13.458;2022-10-16T08:34:02;100814.97;;;17.11;76.27
41945;BME280;63122;52.424;13.458;2022-10-16T08:36:35;100812.53;;;17.17;76.36
41945;BME280;63122;52.424;13.458;2022-10-16T08:39:18;100813.25;;;17.04;76.40
41945;BME280;63122;52.424;13.458;2022-10-16T08:42:07;100819.19;;;17.06;76.75
41945;BME280;63122;52.424;13.458;2022-10-16T08:45:11;100811.22;;;17.06;77.05
41945;BME280;63122;52.424;13.458;2022-10-16T08:47:54;100812.31;;;17.40;75.59
41945;BME280;63122;52.424;13.458;2022-10-16T08:50:36;100812.31;;;17.40;75.04
41945;BME280;63122;52.424;13.458;2022-10-16T08:53:17;100817.53;;;17.26;75.04
41945;BME280;63122;52.424;13.458;2022-10-16T08:55:54;100817.78;;;17.10;75.61
41945;BME280;63122;52.424;13.458;2022-10-16T08:58:30;100826.09;;;17.22;75.28
41945;BME280;63122;52.424;13.458;2022-10-16T09:01:15;100831.50;;;17.29;75.00
41945;BME280;63122;52.424;13.458;2022-10-16T09:04:21;100826.41;;;17.34;73.92
41945;BME280;63122;52.424;13.458;2022-10-16T09:06:58;100833.28;;;17.21;74.38
41945;BME280;63122;52.424;13.458;2022-10-16T09:09:50;100833.28;;;17.21;74.49
41945;BME280;63122;52.424;13.458;2022-10-16T09:12:37;100843.88;;;17.36;73.39
41945;BME280;63122;52.424;13.458;2022-10-16T09:15:51;100845.19;;;17.47;73.71
41945;BME280;63122;52.424;13.458;2022-10-16T09:18:30;100856.88;;;17.75;72.81
41945;BME280;63122;52.424;13.458;2022-10-16T09:21:10;100858.88;;;17.66;71.67
41945;BME280;63122;52.424;13.458;2022-10-16T09:23:47;100856.97;;;17.88;71.52
41945;BME280;63122;52.424;13.458;2022-10-16T09:26:19;100853.59;;;18.01;70.66
41945;BME280;63122;52.424;13.458;2022-10-16T09:29:40;100851.28;;;17.98;70.24
41945;BME280;63122;52.424;13.458;2022-10-16T09:32:17;100856.59;;;17.91;70.68
41945;BME280;63122;52.424;13.458;2022-10-16T09:34:55;100845.41;;;17.81;70.37
41945;BME280;63122;52.424;13.458;2022-10-16T09:37:29;100850.94;;;18.01;70.38
41945;BME280;63122;52.424;13.458;2022-10-16T09:40:13;100856.91;;;18.52;68.31
41945;BME280;63122;52.424;13.458;2022-10-16T09:42:46;100852.50;;;18.31;68.32
41945;BME280;63122;52.424;13.458;2022-10-16T09:45:24;100861.03;;;18.54;67.64
41945;BME280;63122;52.424;13.458;2022-10-16T09:47:56;100878.13;;;18.67;67.93
41945;BME280;63122;52.424;13.458;2022-10-16T09:50:28;100879.41;;;18.71;66.80
41945;BME280;63122;52.424;13.458;2022-10-16T09:53:06;100877.06;;;18.54;67.40
41945;BME280;63122;52.424;13.458;2022-10-16T09:55:48;100870.41;;;18.37;67.94
41945;BME280;63122;52.424;13.458;2022-10-16T09:58:23;100889.66;;;18.25;67.74
41945;BME280;63122;52.424;13.458;2022-10-16T10:00:59;100878.03;;;18.05;68.24
41945;BME280;63122;52.424;13.458;2022-10-16T10:03:37;100890.25;;;18.21;67.75
41945;BME280;63122;52.424;13.458;2022-10-16T10:06:26;100890.28;;;18.69;66.76
41945;BME280;63122;52.424;13.458;2022-10-16T10:09:05;100902.41;;;18.79;65.51
41945;BME280;63122;52.424;13.458;2022-10-16T10:11:48;100901.09;;;18.54;65.85
41945;BME280;63122;52.424;13.458;2022-10-16T10:14:24;100900.97;;;18.69;66.64
41945;BME280;63122;52.424;13.458;2022-10-16T10:17:27;100916.75;;;18.64;65.63
41945;BME280;63122;52.424;13.458;2022-10-16T10:20:21;100906.88;;;18.65;66.22
41945;BME280;63122;52.424;13.458;2022-10-16T10:22:54;100913.09;;;18.72;65.16
41945;BME280;63122;52.424;13.458;2022-10-16T10:25:42;100897.38;;;19.11;63.67
41945;BME280;63122;52.424;13.458;2022-10-16T10:28:54;100901.53;;;19.54;62.20
41945;BME280;63122;52.424;13.458;2022-10-16T10:31:34;100908.06;;;19.11;61.71
41945;BME280;63122;52.424;13.458;2022-10-16T10:34:25;100915.13;;;19.25;61.55
41945;BME280;63122;52.424;13.458;2022-10-16T10:37:06;100907.88;;;18.99;62.40
41945;BME280;63122;52.424;13.458;2022-10-16T10:39:45;100907.59;;;18.94;62.10
41945;BME280;63122;52.424;13.458;2022-10-16T10:42:53;100907.69;;;19.07;61.47
41945;BME280;63122;52.424;13.458;2022-10-16T10:45:54;100915.50;;;19.02;60.82
41945;BME280;63122;52.424;13.458;2022-10-16T10:48:46;100922.63;;;18.88;60.67
41945;BME280;63122;52.424;13.458;2022-10-16T10:51:43;100937.28;;;19.06;60.13
41945;BME280;63122;52.424;13.458;2022-10-16T10:54:33;100905.81;;;19.08;60.34
41945;BME280;63122;52.424;13.458;2022-10-16T10:57:27;100914.69;;;19.22;58.73
41945;BME280;63122;52.424;13.458;2022-10-16T11:00:18;100926.47;;;19.54;57.75
41945;BME280;63122;52.424;13.458;2022-10-16T11:02:55;100918.63;;;19.86;57.11
41945;BME280;63122;52.424;13.458;2022-10-16T11:05:40;100914.94;;;20.01;57.23
41945;BME280;63122;52.424;13.458;2022-10-16T11:08:18;100918.38;;;20.22;56.65
41945;BME280;63122;52.424;13.458;2022-10-16T11:11:11;100925.28;;;20.63;54.66
41945;BME280;63122;52.424;13.458;2022-10-16T11:14:13;100927.22;;;20.36;55.27
41945;BME280;63122;52.424;13.458;2022-10-16T11:16:51;100924.72;;;20.48;54.11
41945;BME280;63122;52.424;13.458;2022-10-16T11:19:32;100936.47;;;20.47;53.34
41945;BME280;63122;52.424;13.458;2022-10-16T11:22:11;100936.09;;;20.29;54.11
41945;BME280;63122;52.424;13.458;2022-10-16T11:24:54;100918.34;;;20.42;54.18
41945;BME280;63122;52.424;13.458;2022-10-16T11:27:36;100923.38;;;20.70;53.05
41945;BME280;63122;52.424;13.458;2022-10-16T11:30:18;100940.94;;;20.60;51.69
41945;BME280;63122;52.424;13.458;2022-10-16T11:33:21;100922.16;;;20.66;51.81
41945;BME280;63122;52.424;13.458;2022-10-16T11:35:59;100934.44;;;20.42;53.38
41945;BME280;63122;52.424;13.458;2022-10-16T11:38:34;100928.22;;;20.55;53.58
41945;BME280;63122;52.424;13.458;2022-10-16T11:41:27;100927.19;;;20.49;52.71
41945;BME280;63122;52.424;13.458;2022-10-16T11:44:16;100928.22;;;21.00;50.65
41945;BME280;63122;52.424;13.458;2022-10-16T11:46:55;100920.47;;;20.85;50.90
41945;BME280;63122;52.424;13.458;2022-10-16T11:49:52;100922.63;;;21.41;50.38
41945;BME280;63122;52.424;13.458;2022-10-16T11:53:15;100923.19;;;21.50;49.63
41945;BME280;63122;52.424;13.458;2022-10-16T11:55:51;100928.56;;;21.75;48.30
41945;BME280;63122;52.424;13.458;2022-10-16T11:58:41;100922.84;;;21.90;47.02
41945;BME280;63122;52.424;13.458;2022-10-16T12:01:27;100915.31;;;22.62;46.52
41945;BME280;63122;52.424;13.458;2022-10-16T12:04:11;100929.28;;;22.52;46.40
41945;BME280;63122;52.424;13.458;2022-10-16T12:06:59;100932.22;;;22.81;45.70
41945;BME280;63122;52.424;13.458;2022-10-16T12:10:30;100945.66;;;22.25;44.81
41945;BME280;63122;52.424;13.458;2022-10-16T12:13:28;100946.16;;;21.71;46.49
41945;BME280;63122;52.424;13.458;2022-10-16T12:16:22;100943.78;;;21.81;46.25
41945;BME280;63122;52.424;13.458;2022-10-16T12:19:13;100937.25;;;21.96;45.10
41945;BME280;63122;52.424;13.458;2022-10-16T12:21:45;100952.00;;;22.12;45.09
41945;BME280;63122;52.424;13.458;2022-10-16T12:24:22;100954.78;;;21.98;45.41
41945;BME280;63122;52.424;13.458;2022-10-16T12:26:57;100947.63;;;22.55;44.29
41945;BME280;63122;52.424;13.458;2022-10-16T12:29:34;100944.78;;;22.99;42.81
41945;BME280;63122;52.424;13.458;2022-10-16T12:32:29;100944.34;;;23.44;41.77
41945;BME280;63122;52.424;13.458;2022-10-16T12:35:19;100954.78;;;23.41;41.10
41945;BME280;63122;52.424;13.458;2022-10-16T12:37:51;100950.34;;;23.16;41.76
41945;BME280;63122;52.424;13.458;2022-10-16T12:40:29;100956.78;;;23.57;41.26
41945;BME280;63122;52.424;13.458;2022-10-16T12:43:11;100967.53;;;24.12;40.68
41945;BME280;63122;52.424;13.458;2022-10-16T12:45:46;100957.53;;;24.36;40.43
41945;BME280;63122;52.424;13.458;2022-10-16T12:48:22;100962.84;;;24.72;39.45
41945;BME280;63122;52.424;13.458;2022-10-16T12:51:23;100960.38;;;24.29;40.30
41945;BME280;63122;52.424;13.458;2022-10-16T12:53:59;100954.28;;;24.10;41.04
41945;BME280;63122;52.424;13.458;2022-10-16T12:57:00;100956.69;;;24.48;40.32
41945;BME280;63122;52.424;13.458;2022-10-16T12:59:43;100966.22;;;24.14;40.57
41945;BME280;63122;52.424;13.458;2022-10-16T13:05:33;100968.78;;;23.97;40.21
41945;BME280;63122;52.424;13.458;2022-10-16T13:08:21;100971.56;;;24.50;39.61
41945;BME280;63122;52.424;13.458;2022-10-16T13:11:04;100972.78;;;24.83;38.96
41945;BME280;63122;52.424;13.458;2022-10-16T13:13:53;100976.47;;;25.06;38.20
41945;BME280;63122;52.424;13.458;2022-10-16T13:16:34;100988.28;;;25.34;37.45
41945;BME280;63122;52.424;13.458;2022-10-16T13:19:17;100989.13;;;25.35;36.97
41945;BME280;63122;52.424;13.458;2022-10-16T13:22:02;101000.47;;;25.49;36.94
41945;BME280;63122;52.424;13.458;2022-10-16T13:24:46;100998.56;;;25.49;36.02
41945;BME280;63122;52.424;13.458;2022-10-16T13:27:35;101004.19;;;25.30;36.84
41945;BME280;63122;52.424;13.458;2022-10-16T13:33:32;101011.19;;;24.62;37.83
41945;BME280;63122;52.424;13.458;2022-10-16T13:36:04;101013.91;;;24.14;38.66
41945;BME280;63122;52.424;13.458;2022-10-16T13:38:40;101008.94;;;23.75;39.08
41945;BME280;63122;52.424;13.458;2022-10-16T13:41:14;101008.72;;;23.77;39.87
41945;BME280;63122;52.424;13.458;2022-10-16T13:43:49;101012.16;;;23.53;40.37